createdAt,value
2018-03-30T00:01:53.722Z,95113.89
2018-03-30T00:04:22.119Z,95119.14
2018-03-30T00:06:50.455Z,95115.14
2018-03-30T00:09:30.856Z,95105.08
2018-03-30T00:11:59.189Z,95100.05
2018-03-30T00:14:27.545Z,95105.69
2018-03-30T00:16:55.966Z,95098.68
2018-03-30T00:19:24.270Z,95085.22
2018-03-30T00:21:52.617Z,95086.05
2018-03-30T00:24:20.935Z,95073.58
2018-03-30T00:26:49.351Z,95079.04
2018-03-30T00:29:17.731Z,95085.45
2018-03-30T00:31:46.112Z,95083.19
2018-03-30T00:34:14.524Z,95082.48
2018-03-30T00:36:42.913Z,95076.80
2018-03-30T00:39:11.206Z,95078.81
2018-03-30T00:41:39.519Z,95077.45
2018-03-30T00:44:07.838Z,95068.42
2018-03-30T00:46:36.138Z,95067.02
2018-03-30T00:49:04.492Z,95062.45
2018-03-30T00:51:33.863Z,95058.62
2018-03-30T00:54:02.245Z,95054.86
2018-03-30T00:56:30.622Z,95053.36
2018-03-30T00:58:58.999Z,95048.25
2018-03-30T01:01:27.371Z,95052.63
2018-03-30T01:03:55.677Z,95051.24
2018-03-30T01:06:23.991Z,95040.45
2018-03-30T01:08:52.305Z,95033.44
2018-03-30T01:11:20.612Z,95026.09
2018-03-30T01:13:48.946Z,95020.84
2018-03-30T01:16:17.273Z,95020.93
2018-03-30T01:18:45.573Z,95017.60
2018-03-30T01:21:13.991Z,95017.56
2018-03-30T01:23:42.306Z,95021.00
2018-03-30T01:26:10.600Z,95022.86
2018-03-30T01:28:38.906Z,95025.16
2018-03-30T01:31:07.232Z,95022.66
2018-03-30T01:33:35.545Z,95012.74
2018-03-30T01:36:03.958Z,95013.75
2018-03-30T01:38:32.341Z,95005.25
2018-03-30T01:41:00.826Z,95006.31
2018-03-30T01:43:29.223Z,94999.34
2018-03-30T01:45:57.571Z,94995.64
2018-03-30T01:48:26.004Z,94992.77
2018-03-30T01:50:54.539Z,94993.77
2018-03-30T01:53:22.918Z,94996.67
2018-03-30T01:55:51.227Z,94996.81
2018-03-30T01:58:19.533Z,94991.52
2018-03-30T02:00:47.831Z,94986.08
2018-03-30T02:03:16.211Z,94986.76
2018-03-30T02:05:44.525Z,94983.50
2018-03-30T02:08:12.862Z,94982.23
2018-03-30T02:10:41.246Z,94969.94
2018-03-30T02:13:09.633Z,94979.08
2018-03-30T02:15:37.937Z,94976.58
2018-03-30T02:18:06.246Z,94980.67
2018-03-30T02:20:34.562Z,94984.53
2018-03-30T02:23:02.876Z,94978.15
2018-03-30T02:25:31.314Z,94976.18
2018-03-30T02:27:59.623Z,94967.48
2018-03-30T02:30:27.959Z,94970.37
2018-03-30T02:32:56.402Z,94964.02
2018-03-30T02:35:24.747Z,94961.58
2018-03-30T02:37:53.063Z,94964.54
2018-03-30T02:40:21.486Z,94964.77
2018-03-30T02:42:49.780Z,94954.56
2018-03-30T02:45:18.147Z,94957.45
2018-03-30T02:47:46.478Z,94954.16
2018-03-30T02:50:14.816Z,94947.77
2018-03-30T02:52:43.125Z,94944.55
2018-03-30T02:55:11.651Z,94939.81
2018-03-30T02:57:40.084Z,94943.30
2018-03-30T03:00:08.355Z,94951.09
2018-03-30T03:02:36.756Z,94952.90
2018-03-30T03:05:05.069Z,94952.28
2018-03-30T03:07:33.452Z,94945.00
2018-03-30T03:10:01.764Z,94942.72
2018-03-30T03:12:30.091Z,94945.39
2018-03-30T03:14:58.479Z,94941.22
2018-03-30T03:17:26.786Z,94934.13
2018-03-30T03:19:55.092Z,94943.78
2018-03-30T03:22:23.423Z,94928.11
2018-03-30T03:24:51.728Z,94926.55
2018-03-30T03:27:20.082Z,94932.94
2018-03-30T03:29:48.424Z,94935.06
2018-03-30T03:32:16.734Z,94935.92
2018-03-30T03:34:45.050Z,94936.45
2018-03-30T03:37:13.464Z,94932.85
2018-03-30T03:39:41.839Z,94932.85
2018-03-30T03:42:10.153Z,94921.92
2018-03-30T03:44:38.499Z,94926.48
2018-03-30T03:47:06.807Z,94918.13
2018-03-30T03:49:35.146Z,94920.13
2018-03-30T03:52:03.531Z,94921.65
2018-03-30T03:54:31.906Z,94917.52
2018-03-30T03:57:00.229Z,94924.20
2018-03-30T03:59:28.662Z,94919.53
2018-03-30T04:01:56.985Z,94921.12
2018-03-30T04:04:25.332Z,94920.84
2018-03-30T04:06:53.701Z,94923.28
2018-03-30T04:09:22.080Z,94915.38
2018-03-30T04:11:50.399Z,94919.86
2018-03-30T04:14:18.735Z,94919.56
2018-03-30T04:16:47.048Z,94917.36
2018-03-30T04:19:15.369Z,94916.80
2018-03-30T04:21:43.683Z,94921.38
2018-03-30T04:24:11.999Z,94918.80
2018-03-30T04:26:40.315Z,94916.35
2018-03-30T04:29:08.699Z,94911.86
2018-03-30T04:31:37.012Z,94910.64
2018-03-30T04:34:05.331Z,94900.64
2018-03-30T04:36:33.673Z,94913.66
2018-03-30T04:39:02.001Z,94901.30
2018-03-30T04:41:30.323Z,94913.45
2018-03-30T04:43:59.164Z,94914.13
2018-03-30T04:46:27.550Z,94910.88
2018-03-30T04:48:56.384Z,94904.66
2018-03-30T04:51:24.712Z,94903.33
2018-03-30T04:53:53.075Z,94896.14
2018-03-30T04:56:21.375Z,94893.05
2018-03-30T04:58:49.723Z,94896.30
2018-03-30T05:01:18.047Z,94895.52
2018-03-30T05:03:46.399Z,94887.66
2018-03-30T05:06:14.886Z,94889.77
2018-03-30T05:08:43.259Z,94878.74
2018-03-30T05:11:11.598Z,94880.13
2018-03-30T05:13:40.018Z,94892.53
2018-03-30T05:16:08.374Z,94891.67
2018-03-30T05:18:36.698Z,94886.05
2018-03-30T05:21:05.018Z,94883.78
2018-03-30T05:23:33.433Z,94878.09
2018-03-30T05:26:01.758Z,94877.78
2018-03-30T05:28:31.117Z,94876.06
2018-03-30T05:30:59.548Z,94882.88
2018-03-30T05:33:27.879Z,94872.91
2018-03-30T05:35:56.217Z,94870.70
2018-03-30T05:38:24.623Z,94876.27
2018-03-30T05:40:52.938Z,94861.92
2018-03-30T05:43:21.315Z,94856.78
2018-03-30T05:45:49.682Z,94855.67
2018-03-30T05:48:18.015Z,94862.45
2018-03-30T05:50:46.345Z,94875.80
2018-03-30T05:53:14.687Z,94868.22
2018-03-30T05:55:43.020Z,94863.83
2018-03-30T05:58:11.438Z,94861.03
2018-03-30T06:00:39.820Z,94848.17
2018-03-30T06:03:08.171Z,94834.77
2018-03-30T06:05:36.478Z,94819.55
2018-03-30T06:08:04.920Z,94817.77
2018-03-30T06:10:33.216Z,94814.86
2018-03-30T06:13:01.535Z,94814.55
2018-03-30T06:15:29.897Z,94806.61
2018-03-30T06:17:58.219Z,94796.82
2018-03-30T06:20:26.609Z,94790.51
2018-03-30T06:22:55.029Z,94788.95
2018-03-30T06:25:23.398Z,94790.56
2018-03-30T06:27:51.739Z,94786.31
2018-03-30T06:30:20.064Z,94791.92
2018-03-30T06:32:48.442Z,94789.71
2018-03-30T06:35:16.814Z,94784.34
2018-03-30T06:37:45.214Z,94783.78
2018-03-30T06:40:13.548Z,94779.48
2018-03-30T06:42:41.937Z,94779.64
2018-03-30T06:45:10.338Z,94777.28
2018-03-30T06:47:38.653Z,94778.69
2018-03-30T06:50:06.981Z,94783.03
2018-03-30T06:52:35.359Z,94786.73
2018-03-30T06:55:03.688Z,94789.30
2018-03-30T06:57:32.011Z,94779.92
2018-03-30T07:00:00.398Z,94779.67
2018-03-30T07:02:28.749Z,94773.75
2018-03-30T07:04:57.071Z,94777.13
2018-03-30T07:07:25.427Z,94780.87
2018-03-30T07:09:53.747Z,94786.69
2018-03-30T07:12:22.073Z,94786.13
2018-03-30T07:14:50.385Z,94783.69
2018-03-30T07:17:18.890Z,94779.33
2018-03-30T07:19:47.217Z,94781.10
2018-03-30T07:22:15.594Z,94773.56
2018-03-30T07:24:43.972Z,94776.41
2018-03-30T07:27:12.348Z,94762.00
2018-03-30T07:29:40.672Z,94755.66
2018-03-30T07:32:09.003Z,94762.59
2018-03-30T07:34:37.388Z,94758.75
2018-03-30T07:37:05.712Z,94759.54
2018-03-30T07:39:34.027Z,94754.61
2018-03-30T07:42:02.369Z,94750.67
2018-03-30T07:44:30.703Z,94755.52
2018-03-30T07:46:59.014Z,94760.73
2018-03-30T07:49:27.343Z,94750.96
2018-03-30T07:51:55.647Z,94747.11
2018-03-30T07:54:23.974Z,94756.11
2018-03-30T07:56:52.293Z,94743.31
2018-03-30T07:59:20.658Z,94745.09
2018-03-30T08:01:49.035Z,94749.24
2018-03-30T08:04:17.412Z,94748.23
2018-03-30T08:06:45.728Z,94737.77
2018-03-30T08:09:14.102Z,94740.58
2018-03-30T08:11:42.540Z,94739.74
2018-03-30T08:14:10.875Z,94733.69
2018-03-30T08:16:39.208Z,94735.95
2018-03-30T08:19:07.515Z,94742.81
2018-03-30T08:21:35.858Z,94741.55
2018-03-30T08:24:04.186Z,94738.31
2018-03-30T08:26:32.511Z,94734.66
2018-03-30T08:29:00.815Z,94728.03
2018-03-30T08:31:29.201Z,94734.20
2018-03-30T08:33:57.564Z,94726.44
2018-03-30T08:36:25.851Z,94730.03
2018-03-30T08:38:54.198Z,94728.93
2018-03-30T08:41:22.578Z,94719.80
2018-03-30T08:43:50.990Z,94723.23
2018-03-30T08:46:19.329Z,94718.10
2018-03-30T08:48:47.712Z,94726.44
2018-03-30T08:51:16.091Z,94724.98
2018-03-30T08:53:44.461Z,94730.77
2018-03-30T08:56:12.809Z,94729.19
2018-03-30T08:58:41.157Z,94732.72
2018-03-30T09:01:09.443Z,94728.92
2018-03-30T09:03:37.746Z,94726.02
2018-03-30T09:06:06.159Z,94721.38
2018-03-30T09:08:34.492Z,94719.85
2018-03-30T09:11:02.790Z,94711.53
2018-03-30T09:13:31.122Z,94705.86
2018-03-30T09:15:59.433Z,94702.73
2018-03-30T09:18:27.744Z,94708.59
2018-03-30T09:20:56.069Z,94714.22
2018-03-30T09:23:24.398Z,94705.51
2018-03-30T09:25:52.703Z,94704.49
2018-03-30T09:28:21.019Z,94703.22
2018-03-30T09:30:49.339Z,94704.56
2018-03-30T09:33:23.285Z,94701.92
2018-03-30T09:35:51.710Z,94713.05
2018-03-30T09:38:20.014Z,94702.31
2018-03-30T09:40:48.324Z,94709.77
2018-03-30T09:43:16.657Z,94706.14
2018-03-30T09:45:44.979Z,94706.81
2018-03-30T09:48:13.299Z,94704.21
2018-03-30T09:50:41.711Z,94702.34
2018-03-30T09:53:10.047Z,94697.47
2018-03-30T09:55:38.361Z,94695.16
2018-03-30T09:58:06.711Z,94687.33
2018-03-30T10:00:35.024Z,94696.71
2018-03-30T10:03:05.185Z,94691.09
2018-03-30T10:05:33.586Z,94698.23
2018-03-30T10:08:01.902Z,94683.16
2018-03-30T10:10:30.234Z,94687.76
2018-03-30T10:12:58.716Z,94682.15
2018-03-30T10:15:27.094Z,94681.66
2018-03-30T10:17:55.442Z,94668.42
2018-03-30T10:20:23.760Z,94662.89
2018-03-30T10:22:52.130Z,94661.59
2018-03-30T10:25:20.507Z,94653.11
2018-03-30T10:27:48.885Z,94657.07
2018-03-30T10:30:17.226Z,94653.53
2018-03-30T10:32:45.538Z,94653.36
2018-03-30T10:35:13.907Z,94641.83
2018-03-30T10:37:42.291Z,94635.80
2018-03-30T10:40:10.622Z,94632.50
2018-03-30T10:42:38.955Z,94626.27
2018-03-30T10:45:07.300Z,94622.83
2018-03-30T10:47:35.700Z,94614.19
2018-03-30T10:50:04.022Z,94612.70
2018-03-30T10:52:32.400Z,94607.98
2018-03-30T10:55:00.777Z,94608.17
2018-03-30T10:57:29.438Z,94604.02
2018-03-30T10:59:57.761Z,94597.23
2018-03-30T11:02:26.091Z,94598.11
2018-03-30T11:04:54.496Z,94596.34
2018-03-30T11:07:22.798Z,94598.55
2018-03-30T11:09:51.143Z,94590.59
2018-03-30T11:12:19.451Z,94588.48
2018-03-30T11:14:47.771Z,94592.02
2018-03-30T11:17:16.155Z,94577.43
2018-03-30T11:19:44.562Z,94575.19
2018-03-30T11:22:12.920Z,94564.11
2018-03-30T11:24:41.325Z,94566.83
2018-03-30T11:27:09.655Z,94563.90
2018-03-30T11:29:37.986Z,94555.27
2018-03-30T11:32:06.420Z,94551.83
2018-03-30T11:34:34.796Z,94544.89
2018-03-30T11:37:03.109Z,94540.27
2018-03-30T11:39:31.427Z,94528.77
2018-03-30T11:41:59.783Z,94518.78
2018-03-30T11:44:28.125Z,94514.92
2018-03-30T11:46:56.475Z,94517.17
2018-03-30T11:49:24.762Z,94511.36
2018-03-30T11:51:53.078Z,94501.66
2018-03-30T11:54:21.395Z,94494.03
2018-03-30T11:56:49.792Z,94477.78
2018-03-30T11:59:18.171Z,94476.75
2018-03-30T12:01:46.548Z,94481.95
2018-03-30T12:04:14.882Z,94475.98
2018-03-30T12:06:43.306Z,94471.67
2018-03-30T12:09:11.728Z,94466.02
2018-03-30T12:11:40.064Z,94448.77
2018-03-30T12:14:08.441Z,94443.52
2018-03-30T12:16:36.818Z,94430.03
2018-03-30T12:19:05.147Z,94427.13
2018-03-30T12:21:33.479Z,94414.44
2018-03-30T12:24:01.955Z,94419.27
2018-03-30T12:26:30.262Z,94412.94
2018-03-30T12:28:58.619Z,94403.67
2018-03-30T12:31:26.958Z,94401.08
2018-03-30T12:33:55.267Z,94399.76
2018-03-30T12:36:23.584Z,94394.02
2018-03-30T12:38:52.735Z,94386.06
2018-03-30T12:41:21.066Z,94386.07
2018-03-30T12:43:49.380Z,94386.19
2018-03-30T12:46:17.725Z,94373.12
2018-03-30T12:48:46.036Z,94369.44
2018-03-30T12:51:14.379Z,94359.78
2018-03-30T12:53:42.795Z,94357.00
2018-03-30T12:56:11.175Z,94345.98
2018-03-30T12:58:39.487Z,94340.20
2018-03-30T13:01:07.789Z,94328.92
2018-03-30T13:03:36.139Z,94322.73
2018-03-30T13:06:04.491Z,94322.63
2018-03-30T13:08:32.863Z,94322.81
2018-03-30T13:11:01.383Z,94319.16
2018-03-30T13:13:29.731Z,94314.06
2018-03-30T13:15:58.046Z,94310.59
2018-03-30T13:18:26.374Z,94299.11
2018-03-30T13:20:54.691Z,94303.74
2018-03-30T13:23:23.024Z,94299.32
2018-03-30T13:25:51.374Z,94302.06
2018-03-30T13:28:19.685Z,94296.12
2018-03-30T13:30:48.078Z,94286.90
2018-03-30T13:33:16.395Z,94277.81
2018-03-30T13:35:44.717Z,94276.59
2018-03-30T13:38:13.121Z,94269.53
2018-03-30T13:40:41.476Z,94255.13
2018-03-30T13:43:09.803Z,94253.53
2018-03-30T13:45:38.131Z,94253.06
2018-03-30T13:48:06.463Z,94259.76
2018-03-30T13:53:38.158Z,94246.80
2018-03-30T13:56:07.974Z,94234.53
2018-03-30T13:58:36.394Z,94234.20
2018-03-30T14:01:06.536Z,94225.69
2018-03-30T14:03:40.759Z,94227.44
2018-03-30T14:06:24.849Z,94210.56
2018-03-30T14:08:54.060Z,94203.53
2018-03-30T14:11:36.573Z,94203.95
2018-03-30T14:14:04.882Z,94186.75
2018-03-30T14:16:33.229Z,94185.55
2018-03-30T14:19:15.839Z,94176.72
2018-03-30T14:21:50.675Z,94180.89
2018-03-30T14:24:18.991Z,94176.45
2018-03-30T14:26:54.006Z,94166.68
2018-03-30T14:29:25.190Z,94159.20
2018-03-30T14:31:53.530Z,94147.58
2018-03-30T14:34:22.686Z,94153.88
2018-03-30T14:37:07.462Z,94135.02
2018-03-30T14:39:50.595Z,94133.27
2018-03-30T14:42:22.411Z,94133.53
2018-03-30T14:44:54.242Z,94120.30
2018-03-30T14:47:24.425Z,94119.84
2018-03-30T14:53:09.748Z,94119.69
2018-03-30T14:55:42.427Z,94120.92
2018-03-30T14:58:14.017Z,94109.53
2018-03-30T15:00:53.126Z,94113.89
2018-03-30T15:03:22.103Z,94112.28
2018-03-30T15:05:53.075Z,94094.89
2018-03-30T15:11:21.066Z,94099.85
2018-03-30T15:13:54.838Z,94091.45
2018-03-30T15:19:20.611Z,94080.98
2018-03-30T15:22:05.703Z,94083.86
2018-03-30T15:24:37.419Z,94083.00
2018-03-30T15:27:24.433Z,94068.67
2018-03-30T15:30:08.419Z,94062.91
2018-03-30T15:32:40.370Z,94051.56
2018-03-30T15:35:09.630Z,94052.00
2018-03-30T15:37:37.975Z,94045.95
2018-03-30T15:40:09.144Z,94052.06
2018-03-30T15:42:38.288Z,94042.30
2018-03-30T15:45:06.716Z,94044.82
2018-03-30T15:47:35.101Z,94042.47
2018-03-30T15:50:03.424Z,94034.05
2018-03-30T15:52:31.750Z,94036.47
2018-03-30T15:55:00.100Z,94037.67
2018-03-30T15:57:28.413Z,94030.52
2018-03-30T15:59:57.367Z,94023.83
2018-03-30T16:02:25.685Z,94019.55
2018-03-30T16:04:54.053Z,94013.13
2018-03-30T16:07:22.425Z,94010.70
2018-03-30T16:10:01.719Z,94018.69
2018-03-30T16:12:31.811Z,94010.47
2018-03-30T16:15:00.143Z,94008.23
2018-03-30T16:17:28.463Z,94010.83
2018-03-30T16:19:56.458Z,94001.59
2018-03-30T16:22:24.332Z,94010.61
2018-03-30T16:24:52.098Z,94007.30
2018-03-30T16:27:19.904Z,94007.06
2018-03-30T16:29:47.688Z,93999.29
2018-03-30T16:32:15.502Z,93995.09
2018-03-30T16:34:43.363Z,93994.08
2018-03-30T16:37:11.261Z,93988.14
2018-03-30T16:39:39.047Z,94000.57
2018-03-30T16:42:06.850Z,94003.82
2018-03-30T16:44:35.675Z,93999.21
2018-03-30T16:47:03.620Z,93998.73
2018-03-30T16:49:31.648Z,93999.08
2018-03-30T16:51:59.440Z,93996.58
2018-03-30T16:54:27.237Z,93995.20
2018-03-30T16:56:55.073Z,93996.34
2018-03-30T16:59:22.829Z,93995.86
2018-03-30T17:01:50.609Z,93993.59
2018-03-30T17:04:18.394Z,93997.05
2018-03-30T17:06:46.174Z,94001.27
2018-03-30T17:09:13.981Z,93993.02
2018-03-30T17:11:41.800Z,94003.31
2018-03-30T17:14:09.614Z,94004.98
2018-03-30T17:16:37.494Z,94004.81
2018-03-30T17:19:05.292Z,93994.17
2018-03-30T17:21:33.129Z,93996.73
2018-03-30T17:24:00.995Z,94000.44
2018-03-30T17:26:28.785Z,93993.27
2018-03-30T17:28:56.591Z,93993.11
2018-03-30T17:31:24.371Z,93981.03
2018-03-30T17:33:52.248Z,93983.42
2018-03-30T17:36:20.139Z,93979.11
2018-03-30T17:38:47.926Z,93977.39
2018-03-30T17:41:15.740Z,93976.46
2018-03-30T17:43:43.527Z,93972.73
2018-03-30T17:46:11.300Z,93979.17
2018-03-30T17:48:39.180Z,93971.39
2018-03-30T17:51:06.961Z,93970.40
2018-03-30T17:53:34.758Z,93969.44
2018-03-30T17:56:02.654Z,93966.31
2018-03-30T17:58:30.546Z,93969.80
2018-03-30T18:00:58.373Z,93968.02
2018-03-30T18:03:26.174Z,93974.60
2018-03-30T18:05:53.954Z,93981.20
2018-03-30T18:08:21.885Z,93967.83
2018-03-30T18:10:49.651Z,93974.77
2018-03-30T18:13:17.511Z,93974.60
2018-03-30T18:15:45.308Z,93969.66
2018-03-30T18:18:13.135Z,93967.73
2018-03-30T18:20:40.931Z,93966.18
2018-03-30T18:23:08.706Z,93971.06
2018-03-30T18:25:36.563Z,93975.38
2018-03-30T18:28:04.288Z,93967.97
2018-03-30T18:30:32.153Z,93976.66
2018-03-30T18:32:59.946Z,93965.89
2018-03-30T18:35:27.739Z,93969.91
2018-03-30T18:37:55.517Z,93969.63
2018-03-30T18:40:23.302Z,93967.86
2018-03-30T18:42:51.173Z,93972.11
2018-03-30T18:45:18.999Z,93963.53
2018-03-30T18:47:46.790Z,93963.65
2018-03-30T18:50:14.578Z,93964.04
2018-03-30T18:52:42.366Z,93957.98
2018-03-30T18:55:10.141Z,93956.33
2018-03-30T18:57:38.833Z,93955.27
2018-03-30T19:00:06.595Z,93952.38
2018-03-30T19:02:34.421Z,93950.08
2018-03-30T19:05:02.280Z,93959.75
2018-03-30T19:07:30.155Z,93953.36
2018-03-30T19:09:58.010Z,93948.45
2018-03-30T19:12:25.811Z,93949.50
2018-03-30T19:14:53.578Z,93947.20
2018-03-30T19:17:21.410Z,93948.36
2018-03-30T19:19:49.319Z,93944.95
2018-03-30T19:22:17.143Z,93942.91
2018-03-30T19:24:45.018Z,93948.52
2018-03-30T19:27:12.795Z,93947.01
2018-03-30T19:29:40.575Z,93939.75
2018-03-30T19:32:08.395Z,93933.39
2018-03-30T19:34:36.171Z,93921.88
2018-03-30T19:37:04.026Z,93932.97
2018-03-30T19:39:31.898Z,93939.07
2018-03-30T19:41:59.766Z,93943.48
2018-03-30T19:44:27.637Z,93938.05
2018-03-30T19:46:55.500Z,93932.46
2018-03-30T19:49:23.292Z,93932.34
2018-03-30T19:51:51.343Z,93937.66
2018-03-30T19:54:19.143Z,93937.27
2018-03-30T19:56:46.979Z,93939.12
2018-03-30T19:59:14.779Z,93946.09
2018-03-30T20:01:42.554Z,93944.47
2018-03-30T20:04:10.354Z,93943.66
2018-03-30T20:06:38.198Z,93945.56
2018-03-30T20:09:05.996Z,93945.49
2018-03-30T20:11:33.860Z,93946.27
2018-03-30T20:14:01.672Z,93948.65
2018-03-30T20:16:29.508Z,93969.46
2018-03-30T20:18:57.363Z,94018.91
2018-03-30T20:21:25.247Z,93984.67
2018-03-30T20:23:53.048Z,94013.20
2018-03-30T20:26:20.827Z,93982.32
2018-03-30T20:28:48.722Z,93978.41
2018-03-30T20:31:16.485Z,93970.25
2018-03-30T20:33:44.340Z,93967.91
2018-03-30T20:36:12.216Z,93972.65
2018-03-30T20:38:40.008Z,93985.27
2018-03-30T20:41:07.839Z,93991.09
2018-03-30T20:43:35.646Z,93970.91
2018-03-30T20:46:03.418Z,93958.64
2018-03-30T20:48:31.216Z,93984.64
2018-03-30T20:50:59.002Z,93989.91
2018-03-30T20:53:26.824Z,94000.44
2018-03-30T20:55:54.634Z,94004.20
2018-03-30T20:58:22.613Z,94004.78
2018-03-30T21:00:50.428Z,94001.87
2018-03-30T21:03:18.235Z,94002.89
2018-03-30T21:05:46.087Z,94004.55
2018-03-30T21:08:13.879Z,94014.53
2018-03-30T21:10:41.722Z,94017.64
2018-03-30T21:13:09.498Z,94023.89
2018-03-30T21:15:37.364Z,94032.44
2018-03-30T21:18:05.129Z,94035.94
2018-03-30T21:20:32.935Z,94041.75
2018-03-30T21:23:00.739Z,94033.42
2018-03-30T21:25:28.606Z,94044.59
2018-03-30T21:27:56.407Z,94065.73
2018-03-30T21:30:24.255Z,94065.80
2018-03-30T21:32:52.030Z,94077.68
2018-03-30T21:35:19.824Z,94075.73
2018-03-30T21:37:47.598Z,94091.05
2018-03-30T21:40:15.498Z,94102.27
2018-03-30T21:42:43.368Z,94107.35
2018-03-30T21:45:11.185Z,94105.38
2018-03-30T21:47:38.957Z,94109.73
2018-03-30T21:50:06.747Z,94103.98
2018-03-30T21:52:34.647Z,94090.45
2018-03-30T21:55:02.460Z,94106.67
2018-03-30T21:57:30.319Z,94104.06
2018-03-30T21:59:58.090Z,94104.66
2018-03-30T22:02:25.896Z,94109.65
2018-03-30T22:04:53.750Z,94113.70
2018-03-30T22:07:21.588Z,94118.83
2018-03-30T22:09:49.399Z,94110.69
2018-03-30T22:12:17.182Z,94120.52
2018-03-30T22:14:45.027Z,94120.77
2018-03-30T22:17:12.831Z,94121.59
2018-03-30T22:19:40.642Z,94132.23
2018-03-30T22:22:08.512Z,94134.18
2018-03-30T22:24:36.282Z,94149.08
2018-03-30T22:27:04.084Z,94138.81
2018-03-30T22:29:31.939Z,94137.80
2018-03-30T22:31:59.773Z,94134.66
2018-03-30T22:34:27.643Z,94136.39
2018-03-30T22:36:55.441Z,94143.53
2018-03-30T22:39:23.214Z,94150.45
2018-03-30T22:41:51.006Z,94146.66
2018-03-30T22:44:18.771Z,94140.23
2018-03-30T22:46:46.632Z,94147.02
2018-03-30T22:49:14.424Z,94146.94
2018-03-30T22:51:42.231Z,94140.05
2018-03-30T22:54:10.054Z,94133.73
2018-03-30T22:56:37.928Z,94144.78
2018-03-30T22:59:05.797Z,94150.28
2018-03-30T23:01:33.582Z,94139.92
2018-03-30T23:04:02.282Z,94152.80
2018-03-30T23:06:30.111Z,94140.88
2018-03-30T23:08:58.480Z,94146.31
2018-03-30T23:11:26.248Z,94139.30
2018-03-30T23:13:54.042Z,94146.16
2018-03-30T23:16:21.896Z,94147.98
2018-03-30T23:18:49.743Z,94144.48
2018-03-30T23:21:18.115Z,94150.12
2018-03-30T23:23:45.991Z,94151.55
2018-03-30T23:26:13.783Z,94154.27
2018-03-30T23:28:41.571Z,94154.92
2018-03-30T23:31:09.504Z,94171.48
2018-03-30T23:33:37.302Z,94162.96
2018-03-30T23:36:05.070Z,94153.13
2018-03-30T23:38:32.878Z,94146.08
2018-03-30T23:41:00.758Z,94145.20
2018-03-30T23:43:28.551Z,94145.05
2018-03-30T23:45:56.375Z,94146.20
2018-03-30T23:48:24.164Z,94147.64
2018-03-30T23:50:51.958Z,94148.46
2018-03-30T23:53:20.506Z,94147.77
2018-03-30T23:55:48.276Z,94153.63
2018-03-30T23:58:16.091Z,94137.73
